sensor_id;sensor_type;location;lat;lon;timestamp;P1;durP1;ratioP1;P2;durP2;ratioP2
80926;SDS011;70385;44.538;18.532;2024-02-21T00:00:32;143.43;;;65.07;;
80926;SDS011;70385;44.538;18.532;2024-02-21T00:02:58;143.50;;;59.42;;
80926;SDS011;70385;44.538;18.532;2024-02-21T00:05:27;111.78;;;51.35;;
80926;SDS011;70385;44.538;18.532;2024-02-21T00:07:53;101.05;;;48.00;;
80926;SDS011;70385;44.538;18.532;2024-02-21T00:10:19;102.18;;;47.40;;
80926;SDS011;70385;44.538;18.532;2024-02-21T00:12:45;112.55;;;54.10;;
80926;SDS011;70385;44.538;18.532;2024-02-21T00:15:11;127.65;;;57.25;;
80926;SDS011;70385;44.538;18.532;2024-02-21T00:17:37;99.15;;;51.67;;
80926;SDS011;70385;44.538;18.532;2024-02-21T00:20:08;101.45;;;46.92;;
80926;SDS011;70385;44.538;18.532;2024-02-21T00:42:52;111.43;;;59.05;;
80926;SDS011;70385;44.538;18.532;2024-02-21T00:45:17;115.15;;;60.40;;
80926;SDS011;70385;44.538;18.532;2024-02-21T00:50:15;117.22;;;58.58;;
80926;SDS011;70385;44.538;18.532;2024-02-21T00:52:41;121.25;;;59.47;;
80926;SDS011;70385;44.538;18.532;2024-02-21T00:55:07;126.68;;;60.88;;
80926;SDS011;70385;44.538;18.532;2024-02-21T00:57:34;123.55;;;60.10;;
80926;SDS011;70385;44.538;18.532;2024-02-21T01:00:01;133.15;;;67.25;;
80926;SDS011;70385;44.538;18.532;2024-02-21T01:02:28;141.07;;;70.97;;
80926;SDS011;70385;44.538;18.532;2024-02-21T01:04:59;129.80;;;66.03;;
80926;SDS011;70385;44.538;18.532;2024-02-21T01:07:24;139.50;;;71.40;;
80926;SDS011;70385;44.538;18.532;2024-02-21T01:09:50;157.05;;;80.68;;
80926;SDS011;70385;44.538;18.532;2024-02-21T01:12:19;131.23;;;64.97;;
80926;SDS011;70385;44.538;18.532;2024-02-21T01:14:45;139.80;;;66.28;;
80926;SDS011;70385;44.538;18.532;2024-02-21T01:17:14;140.68;;;71.10;;
80926;SDS011;70385;44.538;18.532;2024-02-21T01:19:46;135.38;;;67.47;;
80926;SDS011;70385;44.538;18.532;2024-02-21T01:22:12;135.50;;;66.28;;
80926;SDS011;70385;44.538;18.532;2024-02-21T01:24:38;124.32;;;66.28;;
80926;SDS011;70385;44.538;18.532;2024-02-21T01:27:03;143.95;;;71.05;;
80926;SDS011;70385;44.538;18.532;2024-02-21T01:29:29;132.75;;;67.88;;
80926;SDS011;70385;44.538;18.532;2024-02-21T01:31:58;117.85;;;62.63;;
80926;SDS011;70385;44.538;18.532;2024-02-21T01:34:24;115.53;;;59.50;;
80926;SDS011;70385;44.538;18.532;2024-02-21T01:36:49;114.38;;;60.88;;
80926;SDS011;70385;44.538;18.532;2024-02-21T01:39:15;110.45;;;58.97;;
80926;SDS011;70385;44.538;18.532;2024-02-21T01:41:41;113.35;;;56.65;;
80926;SDS011;70385;44.538;18.532;2024-02-21T01:44:08;135.75;;;65.30;;
80926;SDS011;70385;44.538;18.532;2024-02-21T01:46:34;126.22;;;63.65;;
80926;SDS011;70385;44.538;18.532;2024-02-21T01:49:00;131.18;;;66.18;;
80926;SDS011;70385;44.538;18.532;2024-02-21T01:51:26;129.77;;;67.20;;
80926;SDS011;70385;44.538;18.532;2024-02-21T01:53:53;145.30;;;68.40;;
80926;SDS011;70385;44.538;18.532;2024-02-21T01:56:20;131.77;;;68.75;;
80926;SDS011;70385;44.538;18.532;2024-02-21T01:58:47;126.78;;;67.60;;
80926;SDS011;70385;44.538;18.532;2024-02-21T02:01:14;145.77;;;69.63;;
80926;SDS011;70385;44.538;18.532;2024-02-21T02:06:35;129.50;;;64.00;;
80926;SDS011;70385;44.538;18.532;2024-02-21T02:16:46;150.32;;;73.13;;
80926;SDS011;70385;44.538;18.532;2024-02-21T02:19:16;146.80;;;76.75;;
80926;SDS011;70385;44.538;18.532;2024-02-21T02:36:06;140.77;;;70.55;;
80926;SDS011;70385;44.538;18.532;2024-02-21T02:38:33;139.70;;;70.40;;
80926;SDS011;70385;44.538;18.532;2024-02-21T02:40:59;146.45;;;75.30;;
80926;SDS011;70385;44.538;18.532;2024-02-21T02:43:24;133.68;;;72.28;;
80926;SDS011;70385;44.538;18.532;2024-02-21T02:45:50;137.20;;;72.38;;
80926;SDS011;70385;44.538;18.532;2024-02-21T02:48:17;128.18;;;66.07;;
80926;SDS011;70385;44.538;18.532;2024-02-21T02:50:45;128.40;;;63.80;;
80926;SDS011;70385;44.538;18.532;2024-02-21T02:53:11;125.03;;;65.13;;
80926;SDS011;70385;44.538;18.532;2024-02-21T02:55:39;120.50;;;62.30;;
80926;SDS011;70385;44.538;18.532;2024-02-21T02:58:05;106.95;;;60.88;;
80926;SDS011;70385;44.538;18.532;2024-02-21T03:00:31;107.78;;;59.95;;
80926;SDS011;70385;44.538;18.532;2024-02-21T03:03:02;110.60;;;58.85;;
80926;SDS011;70385;44.538;18.532;2024-02-21T03:05:33;105.63;;;55.75;;
80926;SDS011;70385;44.538;18.532;2024-02-21T03:07:59;102.88;;;55.70;;
80926;SDS011;70385;44.538;18.532;2024-02-21T03:10:25;105.25;;;52.92;;
80926;SDS011;70385;44.538;18.532;2024-02-21T03:12:51;94.13;;;53.65;;
80926;SDS011;70385;44.538;18.532;2024-02-21T03:18:47;89.80;;;45.88;;
80926;SDS011;70385;44.538;18.532;2024-02-21T03:21:13;86.88;;;48.08;;
80926;SDS011;70385;44.538;18.532;2024-02-21T03:23:39;92.95;;;49.63;;
80926;SDS011;70385;44.538;18.532;2024-02-21T03:26:05;88.53;;;48.20;;
80926;SDS011;70385;44.538;18.532;2024-02-21T03:28:32;93.93;;;50.17;;
80926;SDS011;70385;44.538;18.532;2024-02-21T03:34:53;108.90;;;56.20;;
80926;SDS011;70385;44.538;18.532;2024-02-21T03:41:10;100.43;;;52.97;;
80926;SDS011;70385;44.538;18.532;2024-02-21T03:43:39;112.18;;;56.03;;
80926;SDS011;70385;44.538;18.532;2024-02-21T03:46:05;105.47;;;57.20;;
80926;SDS011;70385;44.538;18.532;2024-02-21T03:48:32;104.93;;;54.65;;
80926;SDS011;70385;44.538;18.532;2024-02-21T03:50:58;102.90;;;55.38;;
80926;SDS011;70385;44.538;18.532;2024-02-21T03:53:24;128.43;;;62.15;;
80926;SDS011;70385;44.538;18.532;2024-02-21T03:55:50;135.35;;;64.35;;
80926;SDS011;70385;44.538;18.532;2024-02-21T03:58:16;123.35;;;58.85;;
80926;SDS011;70385;44.538;18.532;2024-02-21T04:11:46;127.88;;;60.17;;
80926;SDS011;70385;44.538;18.532;2024-02-21T04:14:12;127.68;;;63.20;;
80926;SDS011;70385;44.538;18.532;2024-02-21T04:16:38;135.75;;;65.82;;
80926;SDS011;70385;44.538;18.532;2024-02-21T04:27:05;264.00;;;86.43;;
80926;SDS011;70385;44.538;18.532;2024-02-21T04:29:31;267.02;;;89.80;;
80926;SDS011;70385;44.538;18.532;2024-02-21T04:31:57;216.98;;;83.60;;
80926;SDS011;70385;44.538;18.532;2024-02-21T04:34:23;227.07;;;90.93;;
80926;SDS011;70385;44.538;18.532;2024-02-21T04:36:51;217.93;;;89.78;;
80926;SDS011;70385;44.538;18.532;2024-02-21T04:39:16;231.23;;;89.70;;
80926;SDS011;70385;44.538;18.532;2024-02-21T04:41:42;228.75;;;89.13;;
80926;SDS011;70385;44.538;18.532;2024-02-21T04:44:08;241.18;;;91.95;;
80926;SDS011;70385;44.538;18.532;2024-02-21T04:46:34;236.98;;;92.30;;
80926;SDS011;70385;44.538;18.532;2024-02-21T04:49:02;242.55;;;97.72;;
80926;SDS011;70385;44.538;18.532;2024-02-21T04:51:29;245.05;;;99.07;;
80926;SDS011;70385;44.538;18.532;2024-02-21T04:53:55;235.07;;;93.05;;
80926;SDS011;70385;44.538;18.532;2024-02-21T04:56:24;248.75;;;91.38;;
80926;SDS011;70385;44.538;18.532;2024-02-21T04:58:50;234.05;;;95.03;;
80926;SDS011;70385;44.538;18.532;2024-02-21T05:01:18;251.05;;;97.55;;
80926;SDS011;70385;44.538;18.532;2024-02-21T05:03:44;254.57;;;99.93;;
80926;SDS011;70385;44.538;18.532;2024-02-21T05:06:12;242.48;;;96.40;;
80926;SDS011;70385;44.538;18.532;2024-02-21T05:08:38;235.68;;;91.82;;
80926;SDS011;70385;44.538;18.532;2024-02-21T05:11:04;246.40;;;96.85;;
80926;SDS011;70385;44.538;18.532;2024-02-21T05:13:30;246.15;;;96.55;;
80926;SDS011;70385;44.538;18.532;2024-02-21T05:15:56;227.98;;;92.22;;
80926;SDS011;70385;44.538;18.532;2024-02-21T05:18:22;235.35;;;95.50;;
80926;SDS011;70385;44.538;18.532;2024-02-21T05:38:37;72.65;;;41.28;;
80926;SDS011;70385;44.538;18.532;2024-02-21T05:41:03;84.90;;;48.50;;
80926;SDS011;70385;44.538;18.532;2024-02-21T05:43:30;83.60;;;44.40;;
80926;SDS011;70385;44.538;18.532;2024-02-21T05:45:57;86.20;;;46.20;;
80926;SDS011;70385;44.538;18.532;2024-02-21T05:48:23;88.78;;;46.25;;
80926;SDS011;70385;44.538;18.532;2024-02-21T05:54:57;105.50;;;55.42;;
80926;SDS011;70385;44.538;18.532;2024-02-21T05:57:25;137.80;;;61.00;;
80926;SDS011;70385;44.538;18.532;2024-02-21T05:59:57;142.75;;;63.05;;
80926;SDS011;70385;44.538;18.532;2024-02-21T06:02:38;163.27;;;69.10;;
80926;SDS011;70385;44.538;18.532;2024-02-21T06:09:11;172.73;;;74.95;;
80926;SDS011;70385;44.538;18.532;2024-02-21T06:11:43;157.40;;;72.10;;
80926;SDS011;70385;44.538;18.532;2024-02-21T06:14:14;161.82;;;70.97;;
80926;SDS011;70385;44.538;18.532;2024-02-21T06:16:40;152.65;;;70.55;;
80926;SDS011;70385;44.538;18.532;2024-02-21T06:19:05;180.10;;;79.25;;
80926;SDS011;70385;44.538;18.532;2024-02-21T06:25:27;159.00;;;78.20;;
80926;SDS011;70385;44.538;18.532;2024-02-21T06:35:22;161.82;;;77.63;;
80926;SDS011;70385;44.538;18.532;2024-02-21T06:37:53;145.23;;;71.82;;
80926;SDS011;70385;44.538;18.532;2024-02-21T06:40:22;177.55;;;84.05;;
80926;SDS011;70385;44.538;18.532;2024-02-21T06:49:54;204.55;;;95.30;;
80926;SDS011;70385;44.538;18.532;2024-02-21T06:52:23;233.55;;;115.18;;
80926;SDS011;70385;44.538;18.532;2024-02-21T06:57:49;274.92;;;128.13;;
80926;SDS011;70385;44.538;18.532;2024-02-21T07:04:24;254.48;;;116.63;;
80926;SDS011;70385;44.538;18.532;2024-02-21T07:06:54;232.73;;;105.13;;
80926;SDS011;70385;44.538;18.532;2024-02-21T07:09:30;246.73;;;112.28;;
80926;SDS011;70385;44.538;18.532;2024-02-21T07:11:57;261.13;;;119.95;;
80926;SDS011;70385;44.538;18.532;2024-02-21T07:14:25;255.40;;;111.80;;
80926;SDS011;70385;44.538;18.532;2024-02-21T07:17:37;218.27;;;104.65;;
80926;SDS011;70385;44.538;18.532;2024-02-21T07:20:03;213.05;;;104.20;;
80926;SDS011;70385;44.538;18.532;2024-02-21T07:25:58;220.18;;;105.28;;
80926;SDS011;70385;44.538;18.532;2024-02-21T07:28:24;217.75;;;107.07;;
80926;SDS011;70385;44.538;18.532;2024-02-21T07:30:55;247.45;;;117.38;;
80926;SDS011;70385;44.538;18.532;2024-02-21T07:36:25;274.75;;;129.80;;
80926;SDS011;70385;44.538;18.532;2024-02-21T07:38:54;199.82;;;101.40;;
80926;SDS011;70385;44.538;18.532;2024-02-21T07:41:20;162.93;;;81.78;;
80926;SDS011;70385;44.538;18.532;2024-02-21T07:44:01;158.73;;;82.50;;
80926;SDS011;70385;44.538;18.532;2024-02-21T07:46:29;164.68;;;85.35;;
80926;SDS011;70385;44.538;18.532;2024-02-21T07:56:42;187.88;;;88.15;;
80926;SDS011;70385;44.538;18.532;2024-02-21T07:59:12;184.82;;;87.05;;
80926;SDS011;70385;44.538;18.532;2024-02-21T08:01:41;200.98;;;90.00;;
80926;SDS011;70385;44.538;18.532;2024-02-21T08:08:37;176.85;;;81.53;;
80926;SDS011;70385;44.538;18.532;2024-02-21T08:11:03;172.65;;;82.28;;
80926;SDS011;70385;44.538;18.532;2024-02-21T08:13:39;128.82;;;63.03;;
80926;SDS011;70385;44.538;18.532;2024-02-21T08:16:12;154.68;;;73.78;;
80926;SDS011;70385;44.538;18.532;2024-02-21T08:19:06;132.77;;;65.50;;
80926;SDS011;70385;44.538;18.532;2024-02-21T08:21:42;73.45;;;41.75;;
80926;SDS011;70385;44.538;18.532;2024-02-21T08:24:09;73.70;;;39.60;;
80926;SDS011;70385;44.538;18.532;2024-02-21T08:26:56;58.28;;;33.38;;
80926;SDS011;70385;44.538;18.532;2024-02-21T08:29:35;48.60;;;26.92;;
80926;SDS011;70385;44.538;18.532;2024-02-21T08:32:06;50.92;;;27.98;;
80926;SDS011;70385;44.538;18.532;2024-02-21T08:34:39;36.50;;;18.23;;
80926;SDS011;70385;44.538;18.532;2024-02-21T08:37:16;39.88;;;20.77;;
80926;SDS011;70385;44.538;18.532;2024-02-21T08:39:55;59.28;;;25.58;;
80926;SDS011;70385;44.538;18.532;2024-02-21T08:42:35;46.78;;;25.08;;
80926;SDS011;70385;44.538;18.532;2024-02-21T08:45:06;59.13;;;30.85;;
80926;SDS011;70385;44.538;18.532;2024-02-21T08:47:33;46.10;;;24.50;;
80926;SDS011;70385;44.538;18.532;2024-02-21T08:50:03;43.97;;;22.23;;
80926;SDS011;70385;44.538;18.532;2024-02-21T08:52:35;54.58;;;22.88;;
80926;SDS011;70385;44.538;18.532;2024-02-21T08:55:08;59.72;;;26.23;;
80926;SDS011;70385;44.538;18.532;2024-02-21T08:57:43;22.85;;;12.05;;
80926;SDS011;70385;44.538;18.532;2024-02-21T09:00:11;29.65;;;12.82;;
80926;SDS011;70385;44.538;18.532;2024-02-21T09:02:43;31.23;;;15.73;;
80926;SDS011;70385;44.538;18.532;2024-02-21T09:05:10;28.70;;;15.52;;
80926;SDS011;70385;44.538;18.532;2024-02-21T09:07:36;18.30;;;8.27;;
80926;SDS011;70385;44.538;18.532;2024-02-21T09:14:15;16.30;;;7.35;;
80926;SDS011;70385;44.538;18.532;2024-02-21T09:16:46;10.82;;;7.13;;
80926;SDS011;70385;44.538;18.532;2024-02-21T09:19:13;16.65;;;7.57;;
80926;SDS011;70385;44.538;18.532;2024-02-21T09:21:49;14.27;;;6.05;;
80926;SDS011;70385;44.538;18.532;2024-02-21T09:24:22;12.73;;;6.80;;
80926;SDS011;70385;44.538;18.532;2024-02-21T09:26:53;12.65;;;6.50;;
80926;SDS011;70385;44.538;18.532;2024-02-21T09:29:22;11.85;;;5.50;;
80926;SDS011;70385;44.538;18.532;2024-02-21T09:32:01;9.18;;;4.97;;
80926;SDS011;70385;44.538;18.532;2024-02-21T09:34:29;11.52;;;4.93;;
80926;SDS011;70385;44.538;18.532;2024-02-21T09:40:51;11.40;;;5.47;;
80926;SDS011;70385;44.538;18.532;2024-02-21T09:43:46;10.20;;;5.45;;
80926;SDS011;70385;44.538;18.532;2024-02-21T09:46:43;7.45;;;4.43;;
80926;SDS011;70385;44.538;18.532;2024-02-21T09:49:34;5.03;;;3.25;;
80926;SDS011;70385;44.538;18.532;2024-02-21T09:52:07;8.77;;;3.83;;
80926;SDS011;70385;44.538;18.532;2024-02-21T09:54:39;8.27;;;2.72;;
80926;SDS011;70385;44.538;18.532;2024-02-21T09:57:10;4.78;;;3.00;;
80926;SDS011;70385;44.538;18.532;2024-02-21T09:59:37;5.20;;;2.63;;
80926;SDS011;70385;44.538;18.532;2024-02-21T10:02:03;4.53;;;2.22;;
80926;SDS011;70385;44.538;18.532;2024-02-21T10:04:30;6.38;;;3.75;;
80926;SDS011;70385;44.538;18.532;2024-02-21T10:06:57;4.72;;;2.97;;
80926;SDS011;70385;44.538;18.532;2024-02-21T10:12:55;13.10;;;6.18;;
80926;SDS011;70385;44.538;18.532;2024-02-21T10:15:23;11.90;;;5.30;;
80926;SDS011;70385;44.538;18.532;2024-02-21T10:18:01;5.32;;;2.20;;
80926;SDS011;70385;44.538;18.532;2024-02-21T10:20:39;8.05;;;2.78;;
80926;SDS011;70385;44.538;18.532;2024-02-21T10:24:33;4.20;;;2.00;;
80926;SDS011;70385;44.538;18.532;2024-02-21T10:27:04;3.33;;;1.92;;
80926;SDS011;70385;44.538;18.532;2024-02-21T10:29:35;3.60;;;1.85;;
80926;SDS011;70385;44.538;18.532;2024-02-21T10:41:41;5.13;;;1.80;;
80926;SDS011;70385;44.538;18.532;2024-02-21T10:44:15;3.60;;;2.20;;
80926;SDS011;70385;44.538;18.532;2024-02-21T10:46:43;2.92;;;1.63;;
80926;SDS011;70385;44.538;18.532;2024-02-21T10:49:24;6.22;;;2.10;;
80926;SDS011;70385;44.538;18.532;2024-02-21T10:52:26;5.78;;;2.17;;
80926;SDS011;70385;44.538;18.532;2024-02-21T10:56:59;4.93;;;1.90;;
80926;SDS011;70385;44.538;18.532;2024-02-21T10:59:09;3.42;;;2.13;;
80926;SDS011;70385;44.538;18.532;2024-02-21T11:01:34;3.40;;;2.33;;
80926;SDS011;70385;44.538;18.532;2024-02-21T11:07:55;4.57;;;2.03;;
80926;SDS011;70385;44.538;18.532;2024-02-21T11:10:23;3.78;;;2.22;;
80926;SDS011;70385;44.538;18.532;2024-02-21T11:12:53;4.82;;;2.33;;
80926;SDS011;70385;44.538;18.532;2024-02-21T11:15:30;5.45;;;2.50;;
80926;SDS011;70385;44.538;18.532;2024-02-21T11:20:52;4.57;;;1.90;;
80926;SDS011;70385;44.538;18.532;2024-02-21T11:23:26;6.15;;;2.40;;
80926;SDS011;70385;44.538;18.532;2024-02-21T11:26:39;7.07;;;2.63;;
80926;SDS011;70385;44.538;18.532;2024-02-21T11:28:55;7.50;;;1.95;;
80926;SDS011;70385;44.538;18.532;2024-02-21T11:31:50;3.78;;;1.60;;
80926;SDS011;70385;44.538;18.532;2024-02-21T11:34:20;6.13;;;2.95;;
80926;SDS011;70385;44.538;18.532;2024-02-21T11:36:46;3.95;;;2.22;;
80926;SDS011;70385;44.538;18.532;2024-02-21T11:48:33;5.90;;;1.92;;
80926;SDS011;70385;44.538;18.532;2024-02-21T11:50:59;14.70;;;2.30;;
80926;SDS011;70385;44.538;18.532;2024-02-21T11:53:26;6.20;;;1.88;;
80926;SDS011;70385;44.538;18.532;2024-02-21T11:55:56;5.85;;;2.67;;
80926;SDS011;70385;44.538;18.532;2024-02-21T11:58:22;8.65;;;2.13;;
80926;SDS011;70385;44.538;18.532;2024-02-21T12:00:48;3.95;;;1.98;;
80926;SDS011;70385;44.538;18.532;2024-02-21T12:03:14;4.63;;;2.00;;
80926;SDS011;70385;44.538;18.532;2024-02-21T12:05:41;5.68;;;1.80;;
80926;SDS011;70385;44.538;18.532;2024-02-21T12:08:14;6.63;;;3.47;;
80926;SDS011;70385;44.538;18.532;2024-02-21T12:10:46;4.50;;;1.90;;
80926;SDS011;70385;44.538;18.532;2024-02-21T12:13:22;3.45;;;1.75;;
80926;SDS011;70385;44.538;18.532;2024-02-21T12:15:48;5.00;;;1.92;;
80926;SDS011;70385;44.538;18.532;2024-02-21T12:18:16;8.57;;;1.90;;
80926;SDS011;70385;44.538;18.532;2024-02-21T12:20:42;6.15;;;1.85;;
80926;SDS011;70385;44.538;18.532;2024-02-21T12:23:10;4.50;;;1.63;;
80926;SDS011;70385;44.538;18.532;2024-02-21T12:25:36;4.65;;;2.10;;
80926;SDS011;70385;44.538;18.532;2024-02-21T12:28:30;5.57;;;2.35;;
80926;SDS011;70385;44.538;18.532;2024-02-21T12:30:56;3.05;;;2.08;;
80926;SDS011;70385;44.538;18.532;2024-02-21T12:33:22;7.68;;;2.25;;
80926;SDS011;70385;44.538;18.532;2024-02-21T12:35:50;7.50;;;2.63;;
80926;SDS011;70385;44.538;18.532;2024-02-21T12:38:16;5.97;;;2.35;;
80926;SDS011;70385;44.538;18.532;2024-02-21T12:40:44;5.82;;;2.28;;
80926;SDS011;70385;44.538;18.532;2024-02-21T12:43:10;8.10;;;3.10;;
80926;SDS011;70385;44.538;18.532;2024-02-21T12:45:36;13.30;;;3.63;;
80926;SDS011;70385;44.538;18.532;2024-02-21T12:48:02;10.98;;;4.13;;
80926;SDS011;70385;44.538;18.532;2024-02-21T12:50:29;8.85;;;3.35;;
80926;SDS011;70385;44.538;18.532;2024-02-21T12:52:56;5.60;;;2.47;;
80926;SDS011;70385;44.538;18.532;2024-02-21T12:55:23;7.82;;;2.92;;
80926;SDS011;70385;44.538;18.532;2024-02-21T12:57:55;6.28;;;3.10;;
80926;SDS011;70385;44.538;18.532;2024-02-21T13:00:28;7.75;;;2.30;;
80926;SDS011;70385;44.538;18.532;2024-02-21T13:02:54;6.35;;;2.35;;
80926;SDS011;70385;44.538;18.532;2024-02-21T13:05:24;6.10;;;2.78;;
80926;SDS011;70385;44.538;18.532;2024-02-21T13:07:50;3.50;;;1.90;;
80926;SDS011;70385;44.538;18.532;2024-02-21T13:10:16;3.00;;;2.00;;
80926;SDS011;70385;44.538;18.532;2024-02-21T13:12:43;6.95;;;2.53;;
80926;SDS011;70385;44.538;18.532;2024-02-21T13:15:09;4.55;;;2.10;;
80926;SDS011;70385;44.538;18.532;2024-02-21T13:17:38;4.18;;;1.98;;
80926;SDS011;70385;44.538;18.532;2024-02-21T13:20:07;5.45;;;2.47;;
80926;SDS011;70385;44.538;18.532;2024-02-21T13:22:34;6.40;;;2.80;;
80926;SDS011;70385;44.538;18.532;2024-02-21T13:25:00;7.85;;;2.50;;
80926;SDS011;70385;44.538;18.532;2024-02-21T13:27:27;5.60;;;2.67;;
80926;SDS011;70385;44.538;18.532;2024-02-21T13:29:57;6.82;;;2.50;;
80926;SDS011;70385;44.538;18.532;2024-02-21T13:32:24;5.90;;;2.65;;
80926;SDS011;70385;44.538;18.532;2024-02-21T13:34:49;7.28;;;2.75;;
80926;SDS011;70385;44.538;18.532;2024-02-21T13:37:17;4.20;;;1.65;;
80926;SDS011;70385;44.538;18.532;2024-02-21T13:39:43;8.23;;;2.40;;
80926;SDS011;70385;44.538;18.532;2024-02-21T13:42:10;6.00;;;2.60;;
80926;SDS011;70385;44.538;18.532;2024-02-21T13:44:38;4.43;;;1.92;;
80926;SDS011;70385;44.538;18.532;2024-02-21T13:47:06;5.82;;;2.38;;
80926;SDS011;70385;44.538;18.532;2024-02-21T13:49:33;5.07;;;2.38;;
80926;SDS011;70385;44.538;18.532;2024-02-21T13:51:59;6.32;;;2.25;;
80926;SDS011;70385;44.538;18.532;2024-02-21T13:54:26;4.80;;;2.70;;
80926;SDS011;70385;44.538;18.532;2024-02-21T13:56:52;5.47;;;2.08;;
80926;SDS011;70385;44.538;18.532;2024-02-21T13:59:24;4.32;;;2.28;;
80926;SDS011;70385;44.538;18.532;2024-02-21T14:01:52;7.45;;;2.25;;
80926;SDS011;70385;44.538;18.532;2024-02-21T14:04:18;5.30;;;2.20;;
80926;SDS011;70385;44.538;18.532;2024-02-21T14:06:52;6.15;;;2.40;;
80926;SDS011;70385;44.538;18.532;2024-02-21T14:09:18;6.85;;;2.38;;
80926;SDS011;70385;44.538;18.532;2024-02-21T14:11:47;5.32;;;2.22;;
80926;SDS011;70385;44.538;18.532;2024-02-21T14:14:13;5.65;;;2.53;;
80926;SDS011;70385;44.538;18.532;2024-02-21T14:16:40;5.25;;;2.10;;
80926;SDS011;70385;44.538;18.532;2024-02-21T14:19:06;5.57;;;2.30;;
80926;SDS011;70385;44.538;18.532;2024-02-21T14:21:34;6.70;;;2.95;;
80926;SDS011;70385;44.538;18.532;2024-02-21T14:24:07;12.27;;;4.65;;
80926;SDS011;70385;44.538;18.532;2024-02-21T14:26:33;8.60;;;3.55;;
80926;SDS011;70385;44.538;18.532;2024-02-21T14:29:01;7.93;;;3.80;;
80926;SDS011;70385;44.538;18.532;2024-02-21T14:31:31;16.38;;;6.60;;
80926;SDS011;70385;44.538;18.532;2024-02-21T14:33:57;9.73;;;4.70;;
80926;SDS011;70385;44.538;18.532;2024-02-21T14:36:26;9.05;;;4.38;;
80926;SDS011;70385;44.538;18.532;2024-02-21T14:38:55;9.95;;;4.53;;
80926;SDS011;70385;44.538;18.532;2024-02-21T14:41:21;17.55;;;4.22;;
80926;SDS011;70385;44.538;18.532;2024-02-21T14:43:49;12.38;;;5.00;;
80926;SDS011;70385;44.538;18.532;2024-02-21T14:46:17;10.65;;;5.18;;
80926;SDS011;70385;44.538;18.532;2024-02-21T14:48:46;15.38;;;6.22;;
80926;SDS011;70385;44.538;18.532;2024-02-21T14:51:15;13.43;;;6.35;;
80926;SDS011;70385;44.538;18.532;2024-02-21T14:53:41;22.52;;;8.63;;
80926;SDS011;70385;44.538;18.532;2024-02-21T14:56:12;15.65;;;6.60;;
80926;SDS011;70385;44.538;18.532;2024-02-21T14:58:40;11.63;;;4.90;;
80926;SDS011;70385;44.538;18.532;2024-02-21T15:01:11;10.30;;;3.45;;
80926;SDS011;70385;44.538;18.532;2024-02-21T15:03:38;29.27;;;11.80;;
80926;SDS011;70385;44.538;18.532;2024-02-21T15:06:04;19.45;;;7.57;;
80926;SDS011;70385;44.538;18.532;2024-02-21T15:08:33;17.50;;;7.65;;
80926;SDS011;70385;44.538;18.532;2024-02-21T15:11:24;20.65;;;7.03;;
80926;SDS011;70385;44.538;18.532;2024-02-21T15:13:50;18.85;;;6.15;;
80926;SDS011;70385;44.538;18.532;2024-02-21T15:16:22;27.75;;;8.98;;
80926;SDS011;70385;44.538;18.532;2024-02-21T15:18:53;24.48;;;9.30;;
80926;SDS011;70385;44.538;18.532;2024-02-21T15:21:40;17.15;;;7.40;;
80926;SDS011;70385;44.538;18.532;2024-02-21T15:24:06;21.23;;;8.35;;
80926;SDS011;70385;44.538;18.532;2024-02-21T15:26:33;14.15;;;4.82;;
80926;SDS011;70385;44.538;18.532;2024-02-21T15:29:06;57.03;;;21.25;;
80926;SDS011;70385;44.538;18.532;2024-02-21T15:31:32;21.73;;;8.27;;
80926;SDS011;70385;44.538;18.532;2024-02-21T15:33:57;21.30;;;8.25;;
80926;SDS011;70385;44.538;18.532;2024-02-21T15:36:27;10.85;;;5.80;;
80926;SDS011;70385;44.538;18.532;2024-02-21T15:38:53;13.43;;;5.50;;
80926;SDS011;70385;44.538;18.532;2024-02-21T15:41:31;19.40;;;8.45;;
80926;SDS011;70385;44.538;18.532;2024-02-21T15:43:57;34.15;;;14.27;;
80926;SDS011;70385;44.538;18.532;2024-02-21T15:46:24;16.92;;;6.90;;
80926;SDS011;70385;44.538;18.532;2024-02-21T15:48:52;11.90;;;3.67;;
80926;SDS011;70385;44.538;18.532;2024-02-21T15:51:22;9.10;;;3.92;;
80926;SDS011;70385;44.538;18.532;2024-02-21T15:53:50;18.48;;;7.97;;
80926;SDS011;70385;44.538;18.532;2024-02-21T15:56:16;25.85;;;8.07;;
80926;SDS011;70385;44.538;18.532;2024-02-21T15:58:42;9.95;;;4.25;;
80926;SDS011;70385;44.538;18.532;2024-02-21T16:01:08;9.57;;;4.20;;
80926;SDS011;70385;44.538;18.532;2024-02-21T16:03:38;9.65;;;4.72;;
80926;SDS011;70385;44.538;18.532;2024-02-21T16:06:05;9.23;;;4.40;;
80926;SDS011;70385;44.538;18.532;2024-02-21T16:08:34;13.52;;;5.75;;
80926;SDS011;70385;44.538;18.532;2024-02-21T16:11:14;20.45;;;8.70;;
80926;SDS011;70385;44.538;18.532;2024-02-21T16:13:45;36.58;;;18.00;;
80926;SDS011;70385;44.538;18.532;2024-02-21T16:16:12;80.75;;;37.65;;
80926;SDS011;70385;44.538;18.532;2024-02-21T16:18:39;70.55;;;32.95;;
80926;SDS011;70385;44.538;18.532;2024-02-21T16:21:05;64.68;;;32.60;;
80926;SDS011;70385;44.538;18.532;2024-02-21T16:23:31;43.65;;;20.75;;
80926;SDS011;70385;44.538;18.532;2024-02-21T16:25:57;36.33;;;16.80;;
80926;SDS011;70385;44.538;18.532;2024-02-21T16:28:27;25.42;;;10.30;;
80926;SDS011;70385;44.538;18.532;2024-02-21T16:30:56;24.70;;;8.73;;
80926;SDS011;70385;44.538;18.532;2024-02-21T16:33:23;22.88;;;9.68;;
80926;SDS011;70385;44.538;18.532;2024-02-21T16:35:50;25.42;;;11.70;;
80926;SDS011;70385;44.538;18.532;2024-02-21T16:38:26;31.60;;;15.02;;
80926;SDS011;70385;44.538;18.532;2024-02-21T16:41:03;31.10;;;15.35;;
80926;SDS011;70385;44.538;18.532;2024-02-21T16:43:33;30.48;;;14.13;;
80926;SDS011;70385;44.538;18.532;2024-02-21T16:45:59;25.98;;;12.75;;
80926;SDS011;70385;44.538;18.532;2024-02-21T16:48:25;22.25;;;11.27;;
80926;SDS011;70385;44.538;18.532;2024-02-21T16:50:51;26.75;;;13.45;;
80926;SDS011;70385;44.538;18.532;2024-02-21T16:53:18;30.85;;;14.25;;
80926;SDS011;70385;44.538;18.532;2024-02-21T16:55:46;43.85;;;18.70;;
80926;SDS011;70385;44.538;18.532;2024-02-21T16:58:13;40.15;;;18.65;;
80926;SDS011;70385;44.538;18.532;2024-02-21T17:00:41;46.65;;;20.25;;
80926;SDS011;70385;44.538;18.532;2024-02-21T17:03:10;44.97;;;19.38;;
80926;SDS011;70385;44.538;18.532;2024-02-21T17:05:52;46.85;;;20.40;;
80926;SDS011;70385;44.538;18.532;2024-02-21T17:08:23;45.22;;;20.17;;
80926;SDS011;70385;44.538;18.532;2024-02-21T17:10:53;69.35;;;32.28;;
80926;SDS011;70385;44.538;18.532;2024-02-21T17:13:21;73.57;;;37.05;;
80926;SDS011;70385;44.538;18.532;2024-02-21T17:15:56;57.90;;;33.75;;
80926;SDS011;70385;44.538;18.532;2024-02-21T17:18:32;50.45;;;28.15;;
80926;SDS011;70385;44.538;18.532;2024-02-21T17:23:24;43.97;;;20.20;;
80926;SDS011;70385;44.538;18.532;2024-02-21T17:25:50;50.17;;;22.75;;
80926;SDS011;70385;44.538;18.532;2024-02-21T17:28:17;49.45;;;26.40;;
80926;SDS011;70385;44.538;18.532;2024-02-21T17:30:43;53.08;;;26.92;;
80926;SDS011;70385;44.538;18.532;2024-02-21T17:33:13;53.83;;;23.52;;
80926;SDS011;70385;44.538;18.532;2024-02-21T17:35:39;45.90;;;23.10;;